Time,TemperatureF,DewpointF,PressureIn,WindDirection,WindDirectionDegrees,WindSpeedMPH,WindSpeedGustMPH,Humidity,HourlyPrecipIn,Conditions,Clouds,dailyrainin,SolarRadiationWatts/m^2,SoftwareType,DateUTC
2013-07-19 00:43:00,55.0,52.0,-100.00,SW,230,0.0,2.0,91,0.00,,,-99.99,0.000000,,2013-07-19 08:43:00,
2013-07-19 00:52:00,55.0,52.0,-100.00,SW,230,0.0,2.0,91,0.00,,,-99.99,0.000000,,2013-07-19 08:52:00,
2013-07-19 01:43:00,54.0,52.0,-100.00,SSW,195,1.0,4.0,92,0.00,,,-99.99,0.000000,,2013-07-19 09:43:00,
2013-07-19 01:52:00,54.0,52.0,-100.00,SSW,195,1.0,4.0,92,0.00,,,-99.99,0.000000,,2013-07-19 09:52:00,
2013-07-19 02:43:00,54.0,52.0,-100.00,South,172,2.0,4.0,93,0.00,,,-99.99,0.000000,,2013-07-19 10:43:00,
2013-07-19 02:52:00,54.0,52.0,-100.00,South,172,2.0,4.0,93,0.00,,,-99.99,0.000000,,2013-07-19 10:52:00,
2013-07-19 03:33:00,54.0,52.0,-100.00,South,180,2.0,4.0,94,0.00,,,0.00,0.000000,,2013-07-19 11:33:00,
2013-07-19 03:43:00,54.0,52.0,-100.00,South,180,2.0,4.0,94,0.00,,,0.00,0.000000,,2013-07-19 11:43:00,
2013-07-19 03:52:00,54.0,52.0,-100.00,South,180,2.0,4.0,94,0.00,,,0.00,0.000000,,2013-07-19 11:52:00,
2013-07-19 04:22:00,53.0,52.0,-100.00,SSW,196,0.0,3.0,95,0.00,,,0.00,0.000000,,2013-07-19 12:22:00,
2013-07-19 04:33:00,53.0,52.0,-100.00,SSW,196,0.0,3.0,95,0.00,,,0.00,0.000000,,2013-07-19 12:33:00,
2013-07-19 04:43:00,53.0,52.0,-100.00,SSW,196,0.0,3.0,95,0.00,,,0.00,0.000000,,2013-07-19 12:43:00,
2013-07-19 04:52:00,53.0,52.0,-100.00,SSW,196,0.0,3.0,95,0.00,,,0.00,0.000000,,2013-07-19 12:52:00,
2013-07-19 05:22:00,53.0,52.0,-100.00,South,175,1.0,3.0,95,0.00,,,0.00,1.000000,,2013-07-19 13:22:00,
2013-07-19 05:32:00,53.0,52.0,-100.00,South,175,1.0,3.0,95,0.00,,,0.00,1.000000,,2013-07-19 13:32:00,
2013-07-19 05:43:00,53.0,52.0,-100.00,South,175,1.0,3.0,95,0.00,,,0.00,1.000000,,2013-07-19 13:43:00,
2013-07-19 05:53:00,53.0,52.0,-100.00,South,175,1.0,3.0,95,0.00,,,0.00,1.000000,,2013-07-19 13:53:00,
2013-07-19 06:43:00,54.0,53.0,-100.00,SSW,202,1.0,3.0,95,0.00,,,0.00,13.000000,,2013-07-19 14:43:00,
2013-07-19 06:52:00,54.0,53.0,-100.00,SSW,202,1.0,3.0,95,0.00,,,0.00,13.000000,,2013-07-19 14:52:00,
2013-07-19 07:43:00,55.0,53.0,-100.00,South,175,2.0,4.0,94,0.00,,,0.00,40.000000,,2013-07-19 15:43:00,
2013-07-19 07:52:00,55.0,53.0,-100.00,South,175,2.0,4.0,94,0.00,,,0.00,40.000000,,2013-07-19 15:52:00,
2013-07-19 08:22:00,56.0,53.0,-100.00,South,177,3.0,4.0,91,0.00,,,0.00,90.000000,,2013-07-19 16:22:00,
2013-07-19 08:32:00,56.0,53.0,-100.00,South,177,3.0,4.0,91,0.00,,,0.00,90.000000,,2013-07-19 16:32:00,
2013-07-19 08:43:00,56.0,53.0,-100.00,South,177,3.0,4.0,91,0.00,,,0.00,90.000000,,2013-07-19 16:43:00,
2013-07-19 08:52:00,56.0,53.0,-100.00,South,177,3.0,4.0,91,0.00,,,0.00,90.000000,,2013-07-19 16:52:00,
2013-07-19 09:22:00,58.0,54.0,-100.00,South,178,2.0,6.0,86,0.00,,,0.00,165.000000,,2013-07-19 17:22:00,
2013-07-19 09:32:00,58.0,54.0,-100.00,South,178,2.0,6.0,86,0.00,,,0.00,165.000000,,2013-07-19 17:32:00,
2013-07-19 09:43:00,58.0,54.0,-100.00,South,178,2.0,6.0,86,0.00,,,0.00,165.000000,,2013-07-19 17:43:00,
2013-07-19 09:52:00,58.0,54.0,-100.00,South,178,2.0,6.0,86,0.00,,,0.00,165.000000,,2013-07-19 17:52:00,
2013-07-19 10:21:00,61.0,55.0,-100.00,SSW,192,2.0,5.0,80,0.00,,,0.00,241.000000,,2013-07-19 18:21:00,
2013-07-19 10:32:00,61.0,55.0,-100.00,SSW,192,2.0,5.0,80,0.00,,,0.00,241.000000,,2013-07-19 18:32:00,
2013-07-19 10:42:00,61.0,55.0,-100.00,SSW,192,2.0,5.0,80,0.00,,,0.00,241.000000,,2013-07-19 18:42:00,
2013-07-19 10:52:00,61.0,55.0,-100.00,SSW,192,2.0,5.0,80,0.00,,,0.00,241.000000,,2013-07-19 18:52:00,
2013-07-19 12:43:00,61.0,54.0,-100.00,North,354,4.0,8.0,79,-99.99,,,0.00,298.000000,,2013-07-19 20:43:00,
2013-07-19 12:52:00,61.0,54.0,-100.00,North,354,4.0,8.0,79,-99.99,,,0.00,298.000000,,2013-07-19 20:52:00,
2013-07-19 14:42:00,61.0,52.0,-100.00,North,8,6.0,9.0,71,-99.99,,,-99.99,262.000000,,2013-07-19 22:42:00,
2013-07-19 14:52:00,61.0,52.0,-100.00,North,8,6.0,9.0,71,-99.99,,,-99.99,262.000000,,2013-07-19 22:52:00,
2013-07-19 15:43:00,65.0,54.0,-100.00,NNE,22,4.0,9.0,67,0.00,,,0.00,463.000000,,2013-07-19 23:43:00,
2013-07-19 16:43:00,64.0,53.0,-100.00,North,358,4.0,7.0,67,-99.99,,,0.00,284.000000,,2013-07-20 00:43:00,
2013-07-19 16:52:00,64.0,53.0,-100.00,North,358,4.0,7.0,67,-99.99,,,0.00,284.000000,,2013-07-20 00:52:00,
2013-07-19 17:32:00,64.0,54.0,-100.00,NNW,345,2.0,6.0,69,0.00,,,0.00,227.000000,,2013-07-20 01:32:00,
2013-07-19 17:52:00,64.0,54.0,-100.00,NNW,345,2.0,6.0,69,0.00,,,0.00,227.000000,,2013-07-20 01:52:00,
2013-07-19 19:22:00,61.0,53.0,-100.00,North,354,2.0,6.0,74,-99.99,,,0.00,91.000000,,2013-07-20 03:22:00,
2013-07-19 19:32:00,61.0,53.0,-100.00,North,354,2.0,6.0,74,-99.99,,,0.00,91.000000,,2013-07-20 03:32:00,
2013-07-19 19:44:00,61.0,53.0,-100.00,North,354,2.0,6.0,74,-99.99,,,0.00,91.000000,,2013-07-20 03:44:00,
2013-07-19 19:52:00,61.0,53.0,-100.00,North,354,2.0,6.0,74,-99.99,,,0.00,91.000000,,2013-07-20 03:52:00,
2013-07-19 20:22:00,60.0,52.0,-100.00,South,181,5.0,8.0,76,0.00,,,0.00,53.000000,,2013-07-20 04:22:00,
2013-07-19 20:33:00,60.0,52.0,-100.00,South,181,5.0,8.0,76,0.00,,,0.00,53.000000,,2013-07-20 04:33:00,
2013-07-19 20:44:00,60.0,52.0,-100.00,South,181,5.0,8.0,76,0.00,,,0.00,53.000000,,2013-07-20 04:44:00,
2013-07-19 20:52:00,60.0,52.0,-100.00,South,181,5.0,8.0,76,0.00,,,0.00,53.000000,,2013-07-20 04:52:00,
2013-07-19 21:22:00,58.0,52.0,-100.00,South,181,3.0,6.0,79,0.00,,,0.00,20.000000,,2013-07-20 05:22:00,
2013-07-19 21:32:00,58.0,52.0,-100.00,South,181,3.0,6.0,79,0.00,,,0.00,20.000000,,2013-07-20 05:32:00,
2013-07-19 21:52:00,58.0,52.0,-100.00,South,181,3.0,6.0,79,0.00,,,0.00,20.000000,,2013-07-20 05:52:00,
2013-07-19 22:43:00,57.0,51.0,-100.00,SSW,194,3.0,5.0,80,0.00,,,0.00,2.000000,,2013-07-20 06:43:00,
2013-07-19 22:52:00,57.0,51.0,-100.00,SSW,194,3.0,5.0,80,0.00,,,0.00,2.000000,,2013-07-20 06:52:00,
2013-07-19 23:22:00,56.0,51.0,-100.00,SSW,204,4.0,8.0,83,0.00,,,0.00,0.000000,,2013-07-20 07:22:00,
2013-07-19 23:33:00,56.0,51.0,-100.00,SSW,204,4.0,8.0,83,0.00,,,0.00,0.000000,,2013-07-20 07:33:00,
2013-07-19 23:44:00,56.0,51.0,-100.00,SSW,204,4.0,8.0,83,0.00,,,0.00,0.000000,,2013-07-20 07:44:00,
2013-07-19 23:53:00,56.0,51.0,-100.00,SSW,204,4.0,8.0,83,0.00,,,0.00,0.000000,,2013-07-20 07:53:00,